sensor_id;sensor_type;location;lat;lon;timestamp;pressure;altitude;pressure_sealevel;temperature;humidity
70240;BME280;57629;52.256;10.414;2022-11-20T00:00:52;100521.38;;;19.23;31.85
70240;BME280;57629;52.256;10.414;2022-11-20T00:01:52;100528.53;;;19.23;31.96
70240;BME280;57629;52.256;10.414;2022-11-20T00:02:53;100524.84;;;19.24;31.80
70240;BME280;57629;52.256;10.414;2022-11-20T00:03:55;100523.22;;;19.23;31.94
70240;BME280;57629;52.256;10.414;2022-11-20T00:04:56;100517.88;;;19.23;31.94
70240;BME280;57629;52.256;10.414;2022-11-20T00:05:59;100519.75;;;19.22;31.89
70240;BME280;57629;52.256;10.414;2022-11-20T00:07:00;100517.09;;;19.22;31.60
70240;BME280;57629;52.256;10.414;2022-11-20T00:08:01;100516.28;;;19.22;31.78
70240;BME280;57629;52.256;10.414;2022-11-20T00:09:02;100514.44;;;19.22;31.82
70240;BME280;57629;52.256;10.414;2022-11-20T00:10:03;100516.28;;;19.22;31.78
70240;BME280;57629;52.256;10.414;2022-11-20T00:11:05;100519.75;;;19.22;31.67
70240;BME280;57629;52.256;10.414;2022-11-20T00:12:06;100517.09;;;19.22;31.71
70240;BME280;57629;52.256;10.414;2022-11-20T00:13:07;100521.63;;;19.22;31.51
70240;BME280;57629;52.256;10.414;2022-11-20T00:14:09;100521.63;;;19.22;31.82
70240;BME280;57629;52.256;10.414;2022-11-20T00:15:11;100523.47;;;19.21;31.83
70240;BME280;57629;52.256;10.414;2022-11-20T00:16:14;100522.66;;;19.21;31.70
70240;BME280;57629;52.256;10.414;2022-11-20T00:17:15;100524.28;;;19.22;31.84
70240;BME280;57629;52.256;10.414;2022-11-20T00:18:16;100525.06;;;19.22;31.71
70240;BME280;57629;52.256;10.414;2022-11-20T00:19:16;100521.63;;;19.22;31.64
70240;BME280;57629;52.256;10.414;2022-11-20T00:20:17;100517.34;;;19.21;31.80
70240;BME280;57629;52.256;10.414;2022-11-20T00:21:19;100512.03;;;19.21;31.57
70240;BME280;57629;52.256;10.414;2022-11-20T00:22:20;100514.69;;;19.21;31.59
70240;BME280;57629;52.256;10.414;2022-11-20T00:23:21;100514.69;;;19.21;31.58
70240;BME280;57629;52.256;10.414;2022-11-20T00:24:21;100512.03;;;19.21;31.51
70240;BME280;57629;52.256;10.414;2022-11-20T00:25:22;100511.19;;;19.20;31.73
70240;BME280;57629;52.256;10.414;2022-11-20T00:26:24;100508.53;;;19.20;31.43
70240;BME280;57629;52.256;10.414;2022-11-20T00:27:25;100512.81;;;19.21;31.69
70240;BME280;57629;52.256;10.414;2022-11-20T00:28:26;100507.72;;;19.20;31.51
70240;BME280;57629;52.256;10.414;2022-11-20T00:29:26;100505.06;;;19.20;31.62
70240;BME280;57629;52.256;10.414;2022-11-20T00:30:28;100506.94;;;19.19;31.64
70240;BME280;57629;52.256;10.414;2022-11-20T00:31:30;100513.06;;;19.20;31.67
70240;BME280;57629;52.256;10.414;2022-11-20T00:32:31;100507.72;;;19.20;31.66
70240;BME280;57629;52.256;10.414;2022-11-20T00:33:31;100512.25;;;19.19;31.48
70240;BME280;57629;52.256;10.414;2022-11-20T00:34:32;100502.66;;;19.18;31.52
70240;BME280;57629;52.256;10.414;2022-11-20T00:35:33;100509.59;;;19.19;31.73
70240;BME280;57629;52.256;10.414;2022-11-20T00:36:33;100502.66;;;19.18;31.62
70240;BME280;57629;52.256;10.414;2022-11-20T00:37:34;100496.28;;;19.19;31.35
70240;BME280;57629;52.256;10.414;2022-11-20T00:38:35;100502.66;;;19.18;31.41
70240;BME280;57629;52.256;10.414;2022-11-20T00:39:35;100506.13;;;19.19;31.49
70240;BME280;57629;52.256;10.414;2022-11-20T00:40:36;100494.69;;;19.18;31.51
70240;BME280;57629;52.256;10.414;2022-11-20T00:41:37;100486.69;;;19.18;31.66
70240;BME280;57629;52.256;10.414;2022-11-20T00:42:37;100506.13;;;19.19;31.67
70240;BME280;57629;52.256;10.414;2022-11-20T00:43:38;100489.59;;;19.17;31.51
70240;BME280;57629;52.256;10.414;2022-11-20T00:44:39;100498.38;;;19.17;31.29
70240;BME280;57629;52.256;10.414;2022-11-20T00:45:41;100500.81;;;19.19;31.34
70240;BME280;57629;52.256;10.414;2022-11-20T00:46:41;100501.03;;;19.17;31.36
70240;BME280;57629;52.256;10.414;2022-11-20T00:47:42;100508.00;;;19.18;31.42
70240;BME280;57629;52.256;10.414;2022-11-20T00:48:43;100501.03;;;19.17;31.40
70240;BME280;57629;52.256;10.414;2022-11-20T00:49:44;100501.84;;;19.18;31.44
70240;BME280;57629;52.256;10.414;2022-11-20T00:50:44;100501.84;;;19.18;31.22
70240;BME280;57629;52.256;10.414;2022-11-20T00:51:45;100500.22;;;19.17;31.39
70240;BME280;57629;52.256;10.414;2022-11-20T00:52:46;100495.72;;;19.17;31.45
70240;BME280;57629;52.256;10.414;2022-11-20T00:53:46;100499.16;;;19.18;31.30
70240;BME280;57629;52.256;10.414;2022-11-20T00:54:47;100503.69;;;19.17;31.18
70240;BME280;57629;52.256;10.414;2022-11-20T00:55:55;100505.56;;;19.17;31.15
70240;BME280;57629;52.256;10.414;2022-11-20T00:56:56;100505.56;;;19.17;31.38
70240;BME280;57629;52.256;10.414;2022-11-20T00:57:56;100505.56;;;19.17;31.37
70240;BME280;57629;52.256;10.414;2022-11-20T00:58:59;100506.34;;;19.17;31.19
70240;BME280;57629;52.256;10.414;2022-11-20T01:00:00;100503.69;;;19.17;31.26
70240;BME280;57629;52.256;10.414;2022-11-20T01:01:03;100503.94;;;19.15;31.19
70240;BME280;57629;52.256;10.414;2022-11-20T01:02:05;100505.56;;;19.17;31.22
70240;BME280;57629;52.256;10.414;2022-11-20T01:03:05;100501.84;;;19.18;31.37
70240;BME280;57629;52.256;10.414;2022-11-20T01:04:06;100502.09;;;19.16;31.39
70240;BME280;57629;52.256;10.414;2022-11-20T01:05:07;100499.66;;;19.14;31.30
70240;BME280;57629;52.256;10.414;2022-11-20T01:06:11;100501.28;;;19.15;31.22
70240;BME280;57629;52.256;10.414;2022-11-20T01:07:12;100503.94;;;19.15;31.15
70240;BME280;57629;52.256;10.414;2022-11-20T01:08:12;100500.47;;;19.15;31.22
70240;BME280;57629;52.256;10.414;2022-11-20T01:09:14;100506.63;;;19.15;31.33
70240;BME280;57629;52.256;10.414;2022-11-20T01:10:15;100502.31;;;19.14;31.17
70240;BME280;57629;52.256;10.414;2022-11-20T01:11:17;100505.78;;;19.15;31.13
70240;BME280;57629;52.256;10.414;2022-11-20T01:12:18;100498.84;;;19.14;31.43
70240;BME280;57629;52.256;10.414;2022-11-20T01:13:19;100502.31;;;19.14;31.28
70240;BME280;57629;52.256;10.414;2022-11-20T01:14:19;100492.72;;;19.13;31.12
70240;BME280;57629;52.256;10.414;2022-11-20T01:15:20;100496.19;;;19.14;31.09
70240;BME280;57629;52.256;10.414;2022-11-20T01:16:24;100492.72;;;19.13;31.25
70240;BME280;57629;52.256;10.414;2022-11-20T01:17:25;100487.41;;;19.13;31.15
70240;BME280;57629;52.256;10.414;2022-11-20T01:18:25;100498.84;;;19.14;30.96
70240;BME280;57629;52.256;10.414;2022-11-20T01:19:26;100484.75;;;19.13;30.93
70240;BME280;57629;52.256;10.414;2022-11-20T01:20:27;100481.03;;;19.14;30.90
70240;BME280;57629;52.256;10.414;2022-11-20T01:21:29;100486.59;;;19.13;30.92
70240;BME280;57629;52.256;10.414;2022-11-20T01:22:30;100487.41;;;19.13;30.99
70240;BME280;57629;52.256;10.414;2022-11-20T01:23:32;100484.75;;;19.13;30.87
70240;BME280;57629;52.256;10.414;2022-11-20T01:24:33;100482.09;;;19.13;30.93
70240;BME280;57629;52.256;10.414;2022-11-20T01:25:34;100482.09;;;19.13;30.79
70240;BME280;57629;52.256;10.414;2022-11-20T01:26:36;100480.44;;;19.12;30.86
70240;BME280;57629;52.256;10.414;2022-11-20T01:27:37;100479.44;;;19.13;30.87
70240;BME280;57629;52.256;10.414;2022-11-20T01:28:38;100477.78;;;19.12;30.83
70240;BME280;57629;52.256;10.414;2022-11-20T01:29:39;100480.44;;;19.12;30.85
70240;BME280;57629;52.256;10.414;2022-11-20T01:30:40;100480.44;;;19.12;30.73
70240;BME280;57629;52.256;10.414;2022-11-20T01:31:42;100475.13;;;19.12;30.92
70240;BME280;57629;52.256;10.414;2022-11-20T01:32:43;100472.47;;;19.12;30.76
70240;BME280;57629;52.256;10.414;2022-11-20T01:33:45;100470.63;;;19.13;30.65
70240;BME280;57629;52.256;10.414;2022-11-20T01:34:46;100468.22;;;19.11;30.81
70240;BME280;57629;52.256;10.414;2022-11-20T01:35:47;100469.81;;;19.12;30.86
70240;BME280;57629;52.256;10.414;2022-11-20T01:36:48;100465.53;;;19.11;30.91
70240;BME280;57629;52.256;10.414;2022-11-20T01:37:50;100469.25;;;19.10;30.73
70240;BME280;57629;52.256;10.414;2022-11-20T01:38:51;100462.88;;;19.11;30.78
70240;BME280;57629;52.256;10.414;2022-11-20T01:39:52;100467.41;;;19.11;30.77
70240;BME280;57629;52.256;10.414;2022-11-20T01:40:56;100461.25;;;19.10;30.59
70240;BME280;57629;52.256;10.414;2022-11-20T01:41:56;100465.31;;;19.13;30.54
70240;BME280;57629;52.256;10.414;2022-11-20T01:43:09;100462.88;;;19.11;30.63
70240;BME280;57629;52.256;10.414;2022-11-20T01:44:14;100463.91;;;19.10;30.63
70240;BME280;57629;52.256;10.414;2022-11-20T01:46:58;100466.56;;;19.10;30.73
70240;BME280;57629;52.256;10.414;2022-11-20T01:47:59;100463.13;;;19.10;30.64
70240;BME280;57629;52.256;10.414;2022-11-20T01:49:03;100454.34;;;19.09;30.55
70240;BME280;57629;52.256;10.414;2022-11-20T01:50:06;100455.13;;;19.10;30.42
70240;BME280;57629;52.256;10.414;2022-11-20T01:51:16;100457.78;;;19.10;30.71
70240;BME280;57629;52.256;10.414;2022-11-20T01:52:21;100455.13;;;19.10;30.66
70240;BME280;57629;52.256;10.414;2022-11-20T01:53:26;100451.66;;;19.09;30.56
70240;BME280;57629;52.256;10.414;2022-11-20T01:54:32;100452.47;;;19.10;30.60
70240;BME280;57629;52.256;10.414;2022-11-20T01:55:37;100451.66;;;19.09;30.60
70240;BME280;57629;52.256;10.414;2022-11-20T01:56:41;100441.03;;;19.09;30.51
70240;BME280;57629;52.256;10.414;2022-11-20T01:57:44;100444.75;;;19.08;30.51
70240;BME280;57629;52.256;10.414;2022-11-20T01:58:48;100443.69;;;19.09;30.55
70240;BME280;57629;52.256;10.414;2022-11-20T01:59:52;100437.56;;;19.09;30.60
70240;BME280;57629;52.256;10.414;2022-11-20T02:00:54;100439.16;;;19.10;30.55
70240;BME280;57629;52.256;10.414;2022-11-20T02:01:56;100443.69;;;19.09;30.44
70240;BME280;57629;52.256;10.414;2022-11-20T02:02:59;100437.56;;;19.09;30.60
70240;BME280;57629;52.256;10.414;2022-11-20T02:04:01;100437.56;;;19.09;30.56
70240;BME280;57629;52.256;10.414;2022-11-20T02:05:09;100433.03;;;19.09;30.43
70240;BME280;57629;52.256;10.414;2022-11-20T02:06:16;100441.03;;;19.09;30.48
70240;BME280;57629;52.256;10.414;2022-11-20T02:07:20;100440.22;;;19.09;30.63
70240;BME280;57629;52.256;10.414;2022-11-20T02:08:21;100440.22;;;19.09;30.70
70240;BME280;57629;52.256;10.414;2022-11-20T02:09:23;100441.25;;;19.08;30.73
70240;BME280;57629;52.256;10.414;2022-11-20T02:10:24;100437.78;;;19.07;30.64
70240;BME280;57629;52.256;10.414;2022-11-20T02:11:24;100443.09;;;19.07;30.44
70240;BME280;57629;52.256;10.414;2022-11-20T02:12:25;100441.25;;;19.08;30.45
70240;BME280;57629;52.256;10.414;2022-11-20T02:13:26;100435.94;;;19.08;30.59
70240;BME280;57629;52.256;10.414;2022-11-20T02:14:27;100437.78;;;19.07;30.51
70240;BME280;57629;52.256;10.414;2022-11-20T02:15:28;100443.09;;;19.07;30.38
70240;BME280;57629;52.256;10.414;2022-11-20T02:16:31;100438.59;;;19.08;30.43
70240;BME280;57629;52.256;10.414;2022-11-20T02:17:34;100440.44;;;19.07;30.36
70240;BME280;57629;52.256;10.414;2022-11-20T02:18:35;100437.00;;;19.07;30.47
70240;BME280;57629;52.256;10.414;2022-11-20T02:19:36;100440.44;;;19.07;30.57
70240;BME280;57629;52.256;10.414;2022-11-20T02:20:37;100434.09;;;19.08;30.41
70240;BME280;57629;52.256;10.414;2022-11-20T02:21:42;100434.31;;;19.07;30.56
70240;BME280;57629;52.256;10.414;2022-11-20T02:22:49;100430.59;;;19.08;30.42
70240;BME280;57629;52.256;10.414;2022-11-20T02:24:06;100433.53;;;19.06;30.35
70240;BME280;57629;52.256;10.414;2022-11-20T02:25:09;100435.13;;;19.07;30.51
70240;BME280;57629;52.256;10.414;2022-11-20T02:26:12;100435.13;;;19.07;30.34
70240;BME280;57629;52.256;10.414;2022-11-20T02:27:15;100434.31;;;19.07;30.32
70240;BME280;57629;52.256;10.414;2022-11-20T02:28:17;100431.66;;;19.07;30.07
70240;BME280;57629;52.256;10.414;2022-11-20T02:29:23;100431.66;;;19.07;30.29
70240;BME280;57629;52.256;10.414;2022-11-20T02:30:26;100428.22;;;19.06;30.37
70240;BME280;57629;52.256;10.414;2022-11-20T02:31:26;100430.88;;;19.06;30.12
70240;BME280;57629;52.256;10.414;2022-11-20T02:32:28;100431.66;;;19.07;30.16
70240;BME280;57629;52.256;10.414;2022-11-20T02:33:29;100432.72;;;19.06;30.36
70240;BME280;57629;52.256;10.414;2022-11-20T02:34:30;100425.53;;;19.06;30.25
70240;BME280;57629;52.256;10.414;2022-11-20T02:35:43;100424.75;;;19.06;30.29
70240;BME280;57629;52.256;10.414;2022-11-20T02:36:44;100429.22;;;19.05;30.26
70240;BME280;57629;52.256;10.414;2022-11-20T02:37:48;100425.78;;;19.05;30.23
70240;BME280;57629;52.256;10.414;2022-11-20T02:38:49;100425.53;;;19.06;30.49
70240;BME280;57629;52.256;10.414;2022-11-20T02:39:51;100425.78;;;19.05;30.16
70240;BME280;57629;52.256;10.414;2022-11-20T02:40:52;100422.09;;;19.06;30.18
70240;BME280;57629;52.256;10.414;2022-11-20T02:41:53;100426.56;;;19.05;30.23
70240;BME280;57629;52.256;10.414;2022-11-20T02:42:55;100418.59;;;19.05;30.13
70240;BME280;57629;52.256;10.414;2022-11-20T02:43:56;100420.44;;;19.05;30.15
70240;BME280;57629;52.256;10.414;2022-11-20T02:44:57;100428.44;;;19.05;30.25
70240;BME280;57629;52.256;10.414;2022-11-20T02:45:57;100426.56;;;19.05;30.28
70240;BME280;57629;52.256;10.414;2022-11-20T02:46:58;100423.91;;;19.05;30.20
70240;BME280;57629;52.256;10.414;2022-11-20T02:47:59;100426.56;;;19.05;30.18
70240;BME280;57629;52.256;10.414;2022-11-20T02:49:01;100422.09;;;19.06;30.22
70240;BME280;57629;52.256;10.414;2022-11-20T02:50:02;100419.66;;;19.04;30.16
70240;BME280;57629;52.256;10.414;2022-11-20T02:51:03;100426.56;;;19.05;30.33
70240;BME280;57629;52.256;10.414;2022-11-20T02:52:04;100424.97;;;19.04;30.06
70240;BME280;57629;52.256;10.414;2022-11-20T02:53:05;100423.09;;;19.05;30.09
70240;BME280;57629;52.256;10.414;2022-11-20T02:54:05;100415.13;;;19.05;30.09
70240;BME280;57629;52.256;10.414;2022-11-20T02:55:08;100415.13;;;19.05;30.17
70240;BME280;57629;52.256;10.414;2022-11-20T02:56:09;100412.47;;;19.05;30.23
70240;BME280;57629;52.256;10.414;2022-11-20T02:57:10;100414.31;;;19.04;30.25
70240;BME280;57629;52.256;10.414;2022-11-20T02:58:10;100409.00;;;19.04;30.16
70240;BME280;57629;52.256;10.414;2022-11-20T02:59:11;100418.59;;;19.05;30.01
70240;BME280;57629;52.256;10.414;2022-11-20T03:00:13;100412.47;;;19.05;30.03
70240;BME280;57629;52.256;10.414;2022-11-20T03:01:13;100413.53;;;19.04;30.18
70240;BME280;57629;52.256;10.414;2022-11-20T03:02:14;100414.31;;;19.04;30.13
70240;BME280;57629;52.256;10.414;2022-11-20T03:03:14;100420.44;;;19.05;30.21
70240;BME280;57629;52.256;10.414;2022-11-20T03:04:15;100417.78;;;19.05;30.30
70240;BME280;57629;52.256;10.414;2022-11-20T03:05:16;100417.00;;;19.04;30.28
70240;BME280;57629;52.256;10.414;2022-11-20T03:06:16;100417.00;;;19.04;30.09
70240;BME280;57629;52.256;10.414;2022-11-20T03:07:17;100418.84;;;19.04;30.16
70240;BME280;57629;52.256;10.414;2022-11-20T03:08:18;100418.84;;;19.04;30.19
70240;BME280;57629;52.256;10.414;2022-11-20T03:09:18;100408.22;;;19.04;30.11
70240;BME280;57629;52.256;10.414;2022-11-20T03:10:21;100412.72;;;19.03;30.19
70240;BME280;57629;52.256;10.414;2022-11-20T03:11:21;100411.66;;;19.04;30.22
70240;BME280;57629;52.256;10.414;2022-11-20T03:12:22;100412.72;;;19.03;30.10
70240;BME280;57629;52.256;10.414;2022-11-20T03:13:22;100411.66;;;19.04;30.03
70240;BME280;57629;52.256;10.414;2022-11-20T03:14:25;100405.53;;;19.04;30.09
70240;BME280;57629;52.256;10.414;2022-11-20T03:15:25;100416.19;;;19.04;30.23
70240;BME280;57629;52.256;10.414;2022-11-20T03:16:26;100410.88;;;19.04;30.33
70240;BME280;57629;52.256;10.414;2022-11-20T03:17:26;100416.19;;;19.04;30.18
70240;BME280;57629;52.256;10.414;2022-11-20T03:18:28;100413.53;;;19.04;30.23
70240;BME280;57629;52.256;10.414;2022-11-20T03:19:28;100410.06;;;19.03;30.22
70240;BME280;57629;52.256;10.414;2022-11-20T03:20:29;100404.75;;;19.03;30.08
70240;BME280;57629;52.256;10.414;2022-11-20T03:21:30;100418.06;;;19.03;30.21
70240;BME280;57629;52.256;10.414;2022-11-20T03:22:30;100412.72;;;19.03;30.34
70240;BME280;57629;52.256;10.414;2022-11-20T03:23:32;100411.91;;;19.03;30.29
70240;BME280;57629;52.256;10.414;2022-11-20T03:24:32;100410.06;;;19.03;30.26
70240;BME280;57629;52.256;10.414;2022-11-20T03:25:34;100410.06;;;19.03;30.31
70240;BME280;57629;52.256;10.414;2022-11-20T03:26:35;100412.72;;;19.03;30.03
70240;BME280;57629;52.256;10.414;2022-11-20T03:27:36;100410.88;;;19.04;30.07
70240;BME280;57629;52.256;10.414;2022-11-20T03:28:37;100412.72;;;19.03;30.19
70240;BME280;57629;52.256;10.414;2022-11-20T03:29:37;100408.22;;;19.04;30.16
70240;BME280;57629;52.256;10.414;2022-11-20T03:30:38;100412.72;;;19.03;30.25
70240;BME280;57629;52.256;10.414;2022-11-20T03:31:40;100411.91;;;19.03;30.31
70240;BME280;57629;52.256;10.414;2022-11-20T03:32:41;100402.09;;;19.03;30.27
70240;BME280;57629;52.256;10.414;2022-11-20T03:33:42;100407.41;;;19.03;30.18
70240;BME280;57629;52.256;10.414;2022-11-20T03:34:43;100409.22;;;19.03;30.22
70240;BME280;57629;52.256;10.414;2022-11-20T03:35:44;100412.72;;;19.03;30.33
70240;BME280;57629;52.256;10.414;2022-11-20T03:36:44;100405.78;;;19.02;30.32
70240;BME280;57629;52.256;10.414;2022-11-20T03:37:45;100407.41;;;19.03;30.16
70240;BME280;57629;52.256;10.414;2022-11-20T03:38:46;100406.56;;;19.03;30.15
70240;BME280;57629;52.256;10.414;2022-11-20T03:39:47;100404.75;;;19.03;30.12
70240;BME280;57629;52.256;10.414;2022-11-20T03:40:49;100409.22;;;19.03;30.29
70240;BME280;57629;52.256;10.414;2022-11-20T03:41:50;100394.31;;;19.02;30.31
70240;BME280;57629;52.256;10.414;2022-11-20T03:42:51;100401.25;;;19.03;30.21
70240;BME280;57629;52.256;10.414;2022-11-20T03:43:53;100400.44;;;19.02;30.23
70240;BME280;57629;52.256;10.414;2022-11-20T03:44:54;100406.56;;;19.03;30.14
70240;BME280;57629;52.256;10.414;2022-11-20T03:45:55;100395.94;;;19.03;30.24
70240;BME280;57629;52.256;10.414;2022-11-20T03:46:55;100395.13;;;19.02;30.26
70240;BME280;57629;52.256;10.414;2022-11-20T03:47:56;100391.66;;;19.02;30.26
70240;BME280;57629;52.256;10.414;2022-11-20T03:48:57;100389.00;;;19.02;30.49
70240;BME280;57629;52.256;10.414;2022-11-20T03:49:57;100401.25;;;19.03;30.25
70240;BME280;57629;52.256;10.414;2022-11-20T03:51:09;100392.47;;;19.02;30.27
70240;BME280;57629;52.256;10.414;2022-11-20T03:52:09;100397.78;;;19.02;30.24
70240;BME280;57629;52.256;10.414;2022-11-20T03:53:10;100391.66;;;19.02;30.22
70240;BME280;57629;52.256;10.414;2022-11-20T03:54:11;100389.81;;;19.02;30.22
70240;BME280;57629;52.256;10.414;2022-11-20T03:55:11;100389.81;;;19.02;30.21
70240;BME280;57629;52.256;10.414;2022-11-20T03:56:15;100386.13;;;19.03;30.05
70240;BME280;57629;52.256;10.414;2022-11-20T03:57:15;100386.91;;;19.04;30.19
70240;BME280;57629;52.256;10.414;2022-11-20T03:58:16;100374.63;;;19.03;30.38
70240;BME280;57629;52.256;10.414;2022-11-20T03:59:17;100382.63;;;19.03;30.22
70240;BME280;57629;52.256;10.414;2022-11-20T04:00:18;100381.81;;;19.02;30.29
70240;BME280;57629;52.256;10.414;2022-11-20T04:01:20;100387.94;;;19.03;30.14
70240;BME280;57629;52.256;10.414;2022-11-20T04:02:21;100387.16;;;19.02;30.07
70240;BME280;57629;52.256;10.414;2022-11-20T04:03:22;100383.69;;;19.02;30.14
70240;BME280;57629;52.256;10.414;2022-11-20T04:04:22;100385.28;;;19.03;30.17
70240;BME280;57629;52.256;10.414;2022-11-20T04:05:23;100387.16;;;19.02;30.29
70240;BME280;57629;52.256;10.414;2022-11-20T04:06:26;100387.16;;;19.02;30.11
70240;BME280;57629;52.256;10.414;2022-11-20T04:07:27;100379.16;;;19.02;30.32
70240;BME280;57629;52.256;10.414;2022-11-20T04:08:28;100384.47;;;19.02;30.40
70240;BME280;57629;52.256;10.414;2022-11-20T04:09:28;100383.69;;;19.02;30.22
70240;BME280;57629;52.256;10.414;2022-11-20T04:10:29;100384.47;;;19.02;30.38
70240;BME280;57629;52.256;10.414;2022-11-20T04:11:32;100377.56;;;19.01;30.19
70240;BME280;57629;52.256;10.414;2022-11-20T04:12:33;100385.53;;;19.01;30.20
70240;BME280;57629;52.256;10.414;2022-11-20T04:13:34;100392.47;;;19.02;30.12
70240;BME280;57629;52.256;10.414;2022-11-20T04:14:34;100381.03;;;19.02;30.22
70240;BME280;57629;52.256;10.414;2022-11-20T04:15:35;100381.81;;;19.02;30.09
70240;BME280;57629;52.256;10.414;2022-11-20T04:16:36;100381.03;;;19.02;30.37
70240;BME280;57629;52.256;10.414;2022-11-20T04:17:36;100385.53;;;19.01;30.34
70240;BME280;57629;52.256;10.414;2022-11-20T04:18:37;100376.75;;;19.01;30.23
70240;BME280;57629;52.256;10.414;2022-11-20T04:19:38;100381.03;;;19.02;30.32
70240;BME280;57629;52.256;10.414;2022-11-20T04:20:38;100380.22;;;19.01;30.29
70240;BME280;57629;52.256;10.414;2022-11-20T04:21:39;100374.91;;;19.01;30.29
70240;BME280;57629;52.256;10.414;2022-11-20T04:22:40;100373.84;;;19.02;30.25
70240;BME280;57629;52.256;10.414;2022-11-20T04:23:41;100373.03;;;19.02;30.31
70240;BME280;57629;52.256;10.414;2022-11-20T04:24:41;100382.88;;;19.01;30.37
70240;BME280;57629;52.256;10.414;2022-11-20T04:25:42;100373.03;;;19.02;30.18
70240;BME280;57629;52.256;10.414;2022-11-20T04:26:44;100377.56;;;19.01;30.37
70240;BME280;57629;52.256;10.414;2022-11-20T04:27:44;100382.88;;;19.01;30.38
70240;BME280;57629;52.256;10.414;2022-11-20T04:28:45;100382.09;;;19.01;30.31
70240;BME280;57629;52.256;10.414;2022-11-20T04:29:46;100377.56;;;19.01;30.03
70240;BME280;57629;52.256;10.414;2022-11-20T04:30:46;100375.69;;;19.02;30.31
70240;BME280;57629;52.256;10.414;2022-11-20T04:31:47;100376.50;;;19.02;30.21
70240;BME280;57629;52.256;10.414;2022-11-20T04:32:48;100368.78;;;19.01;30.20
70240;BME280;57629;52.256;10.414;2022-11-20T04:33:48;100371.19;;;19.02;30.37
70240;BME280;57629;52.256;10.414;2022-11-20T04:34:49;100365.06;;;19.02;30.31
70240;BME280;57629;52.256;10.414;2022-11-20T04:35:50;100360.78;;;19.01;30.19
70240;BME280;57629;52.256;10.414;2022-11-20T04:36:50;100371.44;;;19.01;30.27
70240;BME280;57629;52.256;10.414;2022-11-20T04:37:51;100364.25;;;19.01;30.17
70240;BME280;57629;52.256;10.414;2022-11-20T04:38:53;100361.81;;;19.00;30.18
70240;BME280;57629;52.256;10.414;2022-11-20T04:39:54;100358.94;;;19.01;30.24
70240;BME280;57629;52.256;10.414;2022-11-20T04:40:58;100368.78;;;19.01;30.17
70240;BME280;57629;52.256;10.414;2022-11-20T04:42:00;100375.94;;;19.00;30.27
70240;BME280;57629;52.256;10.414;2022-11-20T04:43:01;100372.25;;;19.01;30.15
70240;BME280;57629;52.256;10.414;2022-11-20T04:44:03;100368.78;;;19.01;30.11
70240;BME280;57629;52.256;10.414;2022-11-20T04:45:05;100368.78;;;19.01;30.21
70240;BME280;57629;52.256;10.414;2022-11-20T04:46:06;100370.59;;;19.00;30.27
70240;BME280;57629;52.256;10.414;2022-11-20T04:47:06;100356.50;;;19.00;30.16
70240;BME280;57629;52.256;10.414;2022-11-20T04:48:07;100363.47;;;19.01;30.06
70240;BME280;57629;52.256;10.414;2022-11-20T04:49:08;100356.50;;;19.00;30.13
70240;BME280;57629;52.256;10.414;2022-11-20T04:50:09;100367.94;;;19.00;30.20
70240;BME280;57629;52.256;10.414;2022-11-20T04:51:10;100364.25;;;19.01;30.29
70240;BME280;57629;52.256;10.414;2022-11-20T04:52:11;100358.94;;;19.01;30.16
70240;BME280;57629;52.256;10.414;2022-11-20T04:53:11;100358.13;;;19.01;30.13
70240;BME280;57629;52.256;10.414;2022-11-20T04:54:12;100355.47;;;19.01;30.05
70240;BME280;57629;52.256;10.414;2022-11-20T04:55:13;100352.81;;;19.01;30.25
70240;BME280;57629;52.256;10.414;2022-11-20T04:56:14;100355.47;;;19.01;30.09
70240;BME280;57629;52.256;10.414;2022-11-20T04:57:16;100361.81;;;19.00;30.25
70240;BME280;57629;52.256;10.414;2022-11-20T04:58:16;100354.66;;;19.00;30.30
70240;BME280;57629;52.256;10.414;2022-11-20T04:59:17;100355.47;;;19.01;30.43
70240;BME280;57629;52.256;10.414;2022-11-20T05:00:18;100358.13;;;19.01;30.21
70240;BME280;57629;52.256;10.414;2022-11-20T05:01:20;100364.25;;;19.01;30.11
70240;BME280;57629;52.256;10.414;2022-11-20T05:02:21;100363.47;;;19.01;30.21
70240;BME280;57629;52.256;10.414;2022-11-20T05:03:22;100361.59;;;19.01;30.12
70240;BME280;57629;52.256;10.414;2022-11-20T05:04:23;100363.47;;;19.01;30.33
70240;BME280;57629;52.256;10.414;2022-11-20T05:05:23;100363.69;;;18.99;30.21
70240;BME280;57629;52.256;10.414;2022-11-20T05:06:24;100366.13;;;19.01;30.10
70240;BME280;57629;52.256;10.414;2022-11-20T05:07:24;100359.97;;;19.00;30.31
70240;BME280;57629;52.256;10.414;2022-11-20T05:08:25;100364.50;;;19.00;30.17
70240;BME280;57629;52.256;10.414;2022-11-20T05:09:26;100363.47;;;19.01;30.09
70240;BME280;57629;52.256;10.414;2022-11-20T05:10:27;100361.81;;;19.00;30.30
70240;BME280;57629;52.256;10.414;2022-11-20T05:11:28;100363.69;;;18.99;30.06
70240;BME280;57629;52.256;10.414;2022-11-20T05:12:31;100364.50;;;19.00;30.25
70240;BME280;57629;52.256;10.414;2022-11-20T05:13:31;100361.81;;;19.00;29.89
70240;BME280;57629;52.256;10.414;2022-11-20T05:14:32;100361.03;;;18.99;30.19
70240;BME280;57629;52.256;10.414;2022-11-20T05:15:33;100362.63;;;19.00;30.11
70240;BME280;57629;52.256;10.414;2022-11-20T05:16:34;100367.16;;;19.00;30.23
70240;BME280;57629;52.256;10.414;2022-11-20T05:17:35;100355.69;;;18.99;29.91
70240;BME280;57629;52.256;10.414;2022-11-20T05:18:36;100358.59;;;18.98;29.90
70240;BME280;57629;52.256;10.414;2022-11-20T05:19:37;100364.75;;;18.98;30.03